createdAt,value
2023-03-25T00:01:54.504Z,95283.41
2023-03-25T00:04:41.235Z,95289.66
2023-03-25T00:07:27.265Z,95274.44
2023-03-25T00:10:13.986Z,95268.69
2023-03-25T00:13:04.886Z,95270.63
2023-03-25T00:15:53.435Z,95265.88
2023-03-25T00:18:40.171Z,95272.91
2023-03-25T00:21:25.913Z,95261.59
2023-03-25T00:24:12.645Z,95259.13
2023-03-25T00:26:58.925Z,95246.59
2023-03-25T00:29:48.325Z,95259.75
2023-03-25T00:32:34.292Z,95260.22
2023-03-25T00:35:20.860Z,95252.19
2023-03-25T00:38:07.769Z,95264.38
2023-03-25T00:40:53.945Z,95242.94
2023-03-25T00:43:40.087Z,95270.19
2023-03-25T00:46:28.739Z,95266.50
2023-03-25T00:49:14.478Z,95265.06
2023-03-25T00:52:00.902Z,95265.72
2023-03-25T00:54:46.903Z,95271.09
2023-03-25T00:57:33.986Z,95272.72
2023-03-25T01:00:20.450Z,95247.78
2023-03-25T01:03:06.215Z,95261.59
2023-03-25T01:05:54.752Z,95250.28
2023-03-25T01:08:42.186Z,95251.06
2023-03-25T01:11:37.725Z,95253.78
2023-03-25T01:14:27.767Z,95262.88
2023-03-25T01:17:13.666Z,95249.28
2023-03-25T01:19:59.528Z,95239.34
2023-03-25T01:22:45.524Z,95227.16
2023-03-25T01:25:31.364Z,95238.75
2023-03-25T01:28:17.106Z,95238.16
2023-03-25T01:31:05.136Z,95250.94
2023-03-25T01:33:50.807Z,95249.06
2023-03-25T01:36:39.824Z,95254.66
2023-03-25T01:39:25.814Z,95224.09
2023-03-25T01:42:12.536Z,95235.03
2023-03-25T01:45:13.224Z,95223.69
2023-03-25T01:48:25.147Z,95237.13
2023-03-25T01:51:16.267Z,95243.09
2023-03-25T01:54:02.531Z,95230.09
2023-03-25T01:56:49.961Z,95223.69
2023-03-25T01:59:37.075Z,95225.75
2023-03-25T02:02:25.603Z,95208.44
2023-03-25T02:05:19.187Z,95224.09
2023-03-25T02:08:06.362Z,95219.59
2023-03-25T02:10:52.942Z,95214.00
2023-03-25T02:13:39.863Z,95189.84
2023-03-25T02:16:49.895Z,95210.47
2023-03-25T02:20:27.874Z,95194.78
2023-03-25T02:23:31.724Z,95183.47
2023-03-25T02:26:27.528Z,95201.63
2023-03-25T02:29:16.907Z,95205.34
2023-03-25T02:32:21.840Z,95196.88
2023-03-25T02:35:49.934Z,95201.19
2023-03-25T02:38:54.080Z,95167.97
2023-03-25T02:41:52.867Z,95187.38
2023-03-25T02:44:47.637Z,95198.50
2023-03-25T02:47:38.247Z,95195.22
2023-03-25T02:50:28.024Z,95198.72
2023-03-25T02:53:18.552Z,95205.91
2023-03-25T02:56:08.868Z,95197.88
2023-03-25T02:58:56.540Z,95212.72
2023-03-25T03:01:43.001Z,95206.72
2023-03-25T03:04:30.199Z,95212.91
2023-03-25T03:07:29.818Z,95212.69
2023-03-25T03:10:30.373Z,95207.13
2023-03-25T03:13:46.243Z,95211.19
2023-03-25T03:16:45.748Z,95216.34
2023-03-25T03:19:38.239Z,95216.78
2023-03-25T03:22:36.497Z,95212.41
2023-03-25T03:25:31.032Z,95211.81
2023-03-25T03:28:22.839Z,95197.53
2023-03-25T03:31:48.292Z,95217.75
2023-03-25T03:34:36.674Z,95223.94
2023-03-25T03:37:33.286Z,95219.41
2023-03-25T03:40:21.250Z,95204.53
2023-03-25T03:43:39.058Z,95222.47
2023-03-25T03:46:33.590Z,95218.97
2023-03-25T03:49:23.609Z,95225.75
2023-03-25T03:52:17.130Z,95229.44
2023-03-25T03:55:29.339Z,95225.88
2023-03-25T03:58:23.434Z,95223.44
2023-03-25T04:01:30.792Z,95235.38
2023-03-25T04:04:21.331Z,95208.13
2023-03-25T04:07:17.541Z,95224.03
2023-03-25T04:10:15.827Z,95214.06
2023-03-25T04:13:04.751Z,95235.53
2023-03-25T04:15:51.543Z,95226.47
2023-03-25T04:18:37.672Z,95230.34
2023-03-25T04:21:23.565Z,95228.50
2023-03-25T04:24:09.641Z,95236.97
2023-03-25T04:26:57.654Z,95212.78
2023-03-25T04:29:47.833Z,95211.97
2023-03-25T04:32:34.997Z,95234.25
2023-03-25T04:35:21.583Z,95221.06
2023-03-25T04:38:07.862Z,95229.53
2023-03-25T04:40:53.879Z,95220.44
2023-03-25T04:43:39.980Z,95235.69
2023-03-25T04:46:26.405Z,95243.72
2023-03-25T04:49:19.217Z,95242.06
2023-03-25T04:52:05.321Z,95229.06
2023-03-25T04:54:51.308Z,95243.06
2023-03-25T04:57:37.496Z,95229.88
2023-03-25T05:00:24.893Z,95241.84
2023-03-25T05:03:11.774Z,95232.34
2023-03-25T05:05:57.696Z,95240.59
2023-03-25T05:08:43.764Z,95236.03
2023-03-25T05:11:31.638Z,95244.31
2023-03-25T05:14:19.626Z,95259.94
2023-03-25T05:17:05.808Z,95241.81
2023-03-25T05:19:52.991Z,95244.09
2023-03-25T05:22:39.119Z,95229.00
2023-03-25T05:25:24.917Z,95238.75
2023-03-25T05:28:13.976Z,95246.63
2023-03-25T05:31:00.224Z,95244.13
2023-03-25T05:33:46.301Z,95235.47
2023-03-25T05:36:32.666Z,95237.94
2023-03-25T05:39:19.330Z,95254.22
2023-03-25T05:42:06.368Z,95253.22
2023-03-25T05:44:53.276Z,95245.22
2023-03-25T05:47:40.365Z,95246.03
2023-03-25T05:50:28.918Z,95230.34
2023-03-25T05:53:18.092Z,95247.06
2023-03-25T05:56:04.653Z,95242.97
2023-03-25T05:58:51.521Z,95242.78
2023-03-25T06:01:38.017Z,95231.25
2023-03-25T06:04:24.663Z,95258.91
2023-03-25T06:07:20.045Z,95245.31
2023-03-25T06:10:06.603Z,95242.41
2023-03-25T06:12:53.199Z,95229.25
2023-03-25T06:15:40.761Z,95226.97
2023-03-25T06:18:26.449Z,95243.72
2023-03-25T06:21:12.272Z,95226.59
2023-03-25T06:23:59.455Z,95230.16
2023-03-25T06:26:45.455Z,95235.34
2023-03-25T06:29:31.428Z,95246.94
2023-03-25T06:32:17.540Z,95237.84
2023-03-25T06:35:03.499Z,95230.44
2023-03-25T06:37:49.882Z,95236.25
2023-03-25T06:40:44.907Z,95222.41
2023-03-25T06:43:30.807Z,95242.25
2023-03-25T06:46:55.218Z,95244.72
2023-03-25T06:49:56.728Z,95229.25
2023-03-25T06:52:42.935Z,95229.91
2023-03-25T06:55:28.794Z,95231.56
2023-03-25T06:58:14.549Z,95254.25
2023-03-25T07:01:05.977Z,95222.88
2023-03-25T07:03:51.970Z,95245.09
2023-03-25T07:06:37.970Z,95255.84
2023-03-25T07:09:23.790Z,95246.56
2023-03-25T07:12:09.578Z,95265.72
2023-03-25T07:14:57.410Z,95255.16
2023-03-25T07:17:43.411Z,95244.19
2023-03-25T07:20:29.193Z,95236.47
2023-03-25T07:23:15.033Z,95223.84
2023-03-25T07:26:01.005Z,95212.28
2023-03-25T07:28:48.204Z,95215.91
2023-03-25T07:31:34.098Z,95209.50
2023-03-25T07:34:19.898Z,95210.28
2023-03-25T07:37:05.806Z,95223.03
2023-03-25T07:39:51.538Z,95206.72
2023-03-25T07:42:38.539Z,95217.66
2023-03-25T07:45:55.977Z,95225.44
2023-03-25T07:48:42.478Z,95232.25
2023-03-25T07:51:28.538Z,95221.44
2023-03-25T07:54:14.401Z,95223.88
2023-03-25T07:57:00.434Z,95214.75
2023-03-25T07:59:46.376Z,95214.69
2023-03-25T08:02:32.626Z,95220.19
2023-03-25T08:05:21.563Z,95217.03
2023-03-25T08:08:07.842Z,95207.91
2023-03-25T08:10:53.725Z,95213.19
2023-03-25T08:13:39.918Z,95213.81
2023-03-25T08:16:26.085Z,95204.00
2023-03-25T08:19:12.201Z,95202.88
2023-03-25T08:22:04.925Z,95179.41
2023-03-25T08:24:52.393Z,95180.09
2023-03-25T08:27:38.658Z,95175.09
2023-03-25T08:30:26.311Z,95181.31
2023-03-25T08:33:12.495Z,95181.59
2023-03-25T08:35:58.501Z,95156.66
2023-03-25T08:38:44.578Z,95161.88
2023-03-25T08:41:30.581Z,95158.44
2023-03-25T08:44:16.283Z,95146.03
2023-03-25T08:47:02.226Z,95165.66
2023-03-25T08:49:48.216Z,95155.38
2023-03-25T08:52:34.097Z,95161.59
2023-03-25T08:55:19.965Z,95156.00
2023-03-25T08:58:08.977Z,95144.16
2023-03-25T09:00:56.271Z,95144.31
2023-03-25T09:03:42.513Z,95140.22
2023-03-25T09:06:28.550Z,95123.84
2023-03-25T09:09:33.880Z,95134.72
2023-03-25T09:12:20.203Z,95118.75
2023-03-25T09:15:06.735Z,95113.94
2023-03-25T09:17:53.078Z,95110.88
2023-03-25T09:20:39.420Z,95135.41
2023-03-25T09:23:25.371Z,95121.59
2023-03-25T09:26:11.379Z,95117.25
2023-03-25T09:28:57.215Z,95129.25
2023-03-25T09:31:43.510Z,95137.28
2023-03-25T09:34:29.659Z,95120.63
2023-03-25T09:37:15.679Z,95117.72
2023-03-25T09:40:01.725Z,95117.84
2023-03-25T09:43:06.640Z,95113.38
2023-03-25T09:45:53.385Z,95096.06
2023-03-25T09:48:44.234Z,95099.72
2023-03-25T09:51:33.870Z,95097.00
2023-03-25T09:54:28.888Z,95096.41
2023-03-25T09:57:19.143Z,95091.03
2023-03-25T10:00:07.080Z,95080.72
2023-03-25T10:03:18.874Z,95081.28
2023-03-25T10:06:19.805Z,95079.22
2023-03-25T10:09:47.140Z,95078.97
2023-03-25T10:12:37.812Z,95081.59
2023-03-25T10:15:37.740Z,95075.34
2023-03-25T10:18:34.710Z,95075.13
2023-03-25T10:21:27.048Z,95077.19
2023-03-25T10:24:24.817Z,95064.19
2023-03-25T10:27:43.250Z,95042.75
2023-03-25T10:30:45.285Z,95057.75
2023-03-25T10:33:40.050Z,95049.97
2023-03-25T10:36:39.214Z,95044.53
2023-03-25T10:39:34.117Z,95033.16
2023-03-25T10:42:26.569Z,95038.69
2023-03-25T10:45:14.236Z,95016.41
2023-03-25T10:48:16.810Z,95030.28
2023-03-25T10:51:06.444Z,95030.38
2023-03-25T10:53:53.282Z,95030.09
2023-03-25T10:56:49.087Z,95017.31
2023-03-25T10:59:53.565Z,95027.44
2023-03-25T11:02:39.855Z,95023.09
2023-03-25T11:05:28.012Z,95031.34
2023-03-25T11:08:24.185Z,95032.19
2023-03-25T11:11:13.740Z,95021.56
2023-03-25T11:13:59.810Z,95021.84
2023-03-25T11:16:54.437Z,95018.03
2023-03-25T11:19:44.213Z,95008.00
2023-03-25T11:22:32.247Z,95014.00
2023-03-25T11:25:25.877Z,95002.28
2023-03-25T11:28:16.367Z,95020.78
2023-03-25T11:31:09.404Z,95001.22
2023-03-25T11:34:15.501Z,95001.72
2023-03-25T11:37:09.205Z,95011.28
2023-03-25T11:39:55.934Z,95003.63
2023-03-25T11:42:52.462Z,94994.88
2023-03-25T11:45:45.488Z,94994.63
2023-03-25T11:48:32.323Z,94997.59
2023-03-25T11:51:22.209Z,94994.53
2023-03-25T11:54:11.490Z,94989.38
2023-03-25T11:56:57.641Z,94985.31
2023-03-25T11:59:46.049Z,94991.81
2023-03-25T12:02:38.326Z,94980.41
2023-03-25T12:05:24.572Z,94967.88
2023-03-25T12:08:16.625Z,94969.00
2023-03-25T12:11:05.547Z,94968.25
2023-03-25T12:14:27.378Z,94948.84
2023-03-25T12:17:16.409Z,94959.81
2023-03-25T12:20:21.432Z,94955.47
2023-03-25T12:23:45.354Z,94935.91
2023-03-25T12:26:37.735Z,94930.75
2023-03-25T12:29:57.703Z,94939.72
2023-03-25T12:33:02.972Z,94938.63
2023-03-25T12:36:08.120Z,94913.03
2023-03-25T12:39:17.264Z,94911.41
2023-03-25T12:42:22.180Z,94914.94
2023-03-25T12:45:24.757Z,94899.44
2023-03-25T12:48:15.601Z,94895.63
2023-03-25T12:51:14.959Z,94882.28
2023-03-25T12:54:37.083Z,94880.91
2023-03-25T12:57:45.576Z,94884.19
2023-03-25T13:00:56.452Z,94864.53
2023-03-25T13:03:51.609Z,94865.84
2023-03-25T13:06:59.367Z,94855.75
2023-03-25T13:10:14.948Z,94850.06
2023-03-25T13:13:13.209Z,94845.66
2023-03-25T13:16:06.635Z,94826.31
2023-03-25T13:19:01.667Z,94826.34
2023-03-25T13:21:52.614Z,94829.00
2023-03-25T13:24:46.202Z,94821.38
2023-03-25T13:27:39.937Z,94804.19
2023-03-25T13:30:33.930Z,94805.81
2023-03-25T13:33:27.725Z,94804.47
2023-03-25T13:36:28.293Z,94791.44
2023-03-25T13:39:27.909Z,94785.44
2023-03-25T13:42:24.897Z,94782.63
2023-03-25T13:45:21.104Z,94771.69
2023-03-25T13:48:20.146Z,94768.41
2023-03-25T13:51:07.586Z,94759.03
2023-03-25T13:54:14.657Z,94756.72
2023-03-25T13:57:09.597Z,94760.22
2023-03-25T14:00:21.784Z,94749.59
2023-03-25T14:03:43.108Z,94738.72
2023-03-25T14:06:44.348Z,94742.63
2023-03-25T14:10:01.567Z,94745.75
2023-03-25T14:12:51.317Z,94743.69
2023-03-25T14:15:40.569Z,94733.53
2023-03-25T14:18:28.727Z,94731.44
2023-03-25T14:21:27.262Z,94734.56
2023-03-25T14:24:13.264Z,94734.16
2023-03-25T14:27:15.924Z,94718.13
2023-03-25T14:30:20.525Z,94712.25
2023-03-25T14:33:09.127Z,94709.00
2023-03-25T14:35:57.189Z,94684.28
2023-03-25T14:38:51.570Z,94691.03
2023-03-25T14:42:08.355Z,94697.19
2023-03-25T14:45:32.463Z,94693.09
2023-03-25T14:48:37.970Z,94686.22
2023-03-25T14:51:27.676Z,94686.06
2023-03-25T14:54:21.258Z,94682.66
2023-03-25T14:57:17.933Z,94686.03
2023-03-25T15:00:17.455Z,94681.88
2023-03-25T15:03:14.107Z,94666.97
2023-03-25T15:06:01.108Z,94672.66
2023-03-25T15:08:54.972Z,94662.94
2023-03-25T15:11:44.056Z,94677.81
2023-03-25T15:14:42.508Z,94660.91
2023-03-25T15:17:44.543Z,94673.38
2023-03-25T15:20:35.917Z,94663.44
2023-03-25T15:23:30.262Z,94650.25
2023-03-25T15:26:28.733Z,94662.16
2023-03-25T15:29:47.138Z,94656.16
2023-03-25T15:32:43.075Z,94672.44
2023-03-25T15:35:51.952Z,94678.84
2023-03-25T15:38:56.730Z,94670.41
2023-03-25T15:42:07.677Z,94676.88
2023-03-25T15:44:59.489Z,94674.47
2023-03-25T15:48:13.055Z,94650.91
2023-03-25T15:51:12.244Z,94656.63
2023-03-25T15:54:22.698Z,94648.69
2023-03-25T15:57:24.298Z,94634.78
2023-03-25T16:00:18.476Z,94646.75
2023-03-25T16:03:04.783Z,94641.00
2023-03-25T16:05:55.796Z,94648.50
2023-03-25T16:08:45.798Z,94649.34
2023-03-25T16:11:31.880Z,94642.25
2023-03-25T16:14:21.812Z,94643.91
2023-03-25T16:17:09.037Z,94632.31
2023-03-25T16:19:56.485Z,94661.88
2023-03-25T16:22:44.041Z,94666.09
2023-03-25T16:25:38.027Z,94662.31
2023-03-25T16:28:29.469Z,94653.50
2023-03-25T16:31:41.344Z,94677.06
2023-03-25T16:34:33.702Z,94653.03
2023-03-25T16:37:21.257Z,94650.50
2023-03-25T16:40:08.145Z,94653.91
2023-03-25T16:42:55.655Z,94656.03
2023-03-25T16:45:41.689Z,94657.56
2023-03-25T16:48:34.789Z,94673.47
2023-03-25T16:51:35.339Z,94676.34
2023-03-25T16:54:50.499Z,94674.63
2023-03-25T16:57:40.660Z,94678.22
2023-03-25T17:00:38.333Z,94673.66
2023-03-25T17:03:44.800Z,94679.72
2023-03-25T17:06:35.454Z,94692.78
2023-03-25T17:09:24.353Z,94686.63
2023-03-25T17:12:18.668Z,94700.75
2023-03-25T17:15:08.858Z,94704.06
2023-03-25T17:18:02.226Z,94694.28
2023-03-25T17:20:49.376Z,94717.16
2023-03-25T17:23:36.533Z,94716.88
2023-03-25T17:26:25.584Z,94705.97
2023-03-25T17:29:12.793Z,94726.38
2023-03-25T17:31:59.609Z,94724.75
2023-03-25T17:34:55.909Z,94728.53
2023-03-25T17:37:42.080Z,94739.94
2023-03-25T17:40:28.703Z,94739.38
2023-03-25T17:43:21.190Z,94731.72
2023-03-25T17:46:07.641Z,94751.31
2023-03-25T17:48:57.171Z,94763.47
2023-03-25T17:51:43.908Z,94765.91
2023-03-25T17:54:29.729Z,94771.03
2023-03-25T17:57:19.653Z,94765.28
2023-03-25T18:00:19.553Z,94774.50
2023-03-25T18:03:22.843Z,94783.97
2023-03-25T18:06:08.991Z,94786.63
2023-03-25T18:08:55.190Z,94794.75
2023-03-25T18:11:41.142Z,94805.56
2023-03-25T18:14:27.521Z,94808.50
2023-03-25T18:17:13.779Z,94817.97
2023-03-25T18:19:59.512Z,94810.03
2023-03-25T18:22:46.565Z,94824.09
2023-03-25T18:25:34.198Z,94826.75
2023-03-25T18:28:20.028Z,94827.72
2023-03-25T18:31:06.104Z,94827.94
2023-03-25T18:33:52.417Z,94829.00
2023-03-25T18:36:38.859Z,94844.72
2023-03-25T18:39:26.540Z,94837.53
2023-03-25T18:42:12.446Z,94851.28
2023-03-25T18:44:58.317Z,94846.28
2023-03-25T18:47:44.722Z,94858.44
2023-03-25T18:50:32.685Z,94859.78
2023-03-25T18:53:19.734Z,94862.47
2023-03-25T18:56:07.294Z,94868.34
2023-03-25T18:58:53.322Z,94864.94
2023-03-25T19:01:39.325Z,94880.72
2023-03-25T19:04:25.293Z,94882.44
2023-03-25T19:07:11.322Z,94878.44
2023-03-25T19:09:57.233Z,94905.09
2023-03-25T19:12:44.435Z,94889.41
2023-03-25T19:15:30.549Z,94902.44
2023-03-25T19:18:22.339Z,94923.25
2023-03-25T19:21:08.601Z,94921.00
2023-03-25T19:23:54.432Z,94922.47
2023-03-25T19:26:40.582Z,94918.53
2023-03-25T19:29:27.788Z,94914.91
2023-03-25T19:32:13.669Z,94920.69
2023-03-25T19:34:59.490Z,94925.63
2023-03-25T19:37:50.897Z,94919.16
2023-03-25T19:40:40.682Z,94928.59
2023-03-25T19:43:27.707Z,94929.06
2023-03-25T19:46:13.530Z,94914.81
2023-03-25T19:48:59.573Z,94915.88
2023-03-25T19:51:45.519Z,94935.81
2023-03-25T19:54:31.330Z,94927.09
2023-03-25T19:57:17.822Z,94937.78
2023-03-25T20:00:12.653Z,94925.13
2023-03-25T20:03:01.010Z,94935.72
2023-03-25T20:05:46.996Z,94942.50
2023-03-25T20:08:32.947Z,94944.41
2023-03-25T20:11:19.136Z,94947.34
2023-03-25T20:14:06.500Z,94927.66
2023-03-25T20:16:52.260Z,94926.50
2023-03-25T20:19:38.336Z,94947.16
2023-03-25T20:22:25.093Z,94945.19
2023-03-25T20:25:12.389Z,94945.41
2023-03-25T20:27:58.336Z,94951.81
2023-03-25T20:30:45.777Z,94964.72
2023-03-25T20:33:31.919Z,94943.91
2023-03-25T20:36:19.241Z,94963.63
2023-03-25T20:39:05.980Z,94975.75
2023-03-25T20:41:52.358Z,94976.94
2023-03-25T20:44:38.887Z,94982.84
2023-03-25T20:47:24.831Z,94997.75
2023-03-25T20:50:14.611Z,95025.63
2023-03-25T20:53:00.564Z,95063.75
2023-03-25T20:55:47.366Z,95038.84
2023-03-25T20:58:33.889Z,95037.81
2023-03-25T21:01:21.393Z,95063.16
2023-03-25T21:04:07.857Z,95079.47
2023-03-25T21:06:53.770Z,95075.69
2023-03-25T21:09:40.525Z,95058.78
2023-03-25T21:12:36.507Z,95053.06
2023-03-25T21:15:30.309Z,95080.16
2023-03-25T21:18:16.625Z,95095.06
2023-03-25T21:21:03.613Z,95082.72
2023-03-25T21:23:50.133Z,95109.13
2023-03-25T21:26:36.192Z,95104.16
2023-03-25T21:29:22.412Z,95113.00
2023-03-25T21:32:11.056Z,95108.16
2023-03-25T21:34:59.658Z,95125.53
2023-03-25T21:37:47.024Z,95139.91
2023-03-25T21:40:39.449Z,95130.94
2023-03-25T21:43:27.583Z,95168.19
2023-03-25T21:46:14.497Z,95151.44
2023-03-25T21:49:02.413Z,95155.75
2023-03-25T21:51:50.479Z,95138.50
2023-03-25T21:54:36.403Z,95122.41
2023-03-25T21:57:22.873Z,95137.53
2023-03-25T22:00:09.413Z,95136.09
2023-03-25T22:02:58.632Z,95133.63
2023-03-25T22:05:45.016Z,95116.41
2023-03-25T22:08:31.731Z,95125.84
2023-03-25T22:11:20.699Z,95119.41
2023-03-25T22:14:06.837Z,95118.22
2023-03-25T22:16:53.204Z,95114.53
2023-03-25T22:19:39.083Z,95121.13
2023-03-25T22:22:25.144Z,95112.66
2023-03-25T22:25:11.214Z,95120.91
2023-03-25T22:27:57.259Z,95113.28
2023-03-25T22:30:43.235Z,95099.56
2023-03-25T22:33:30.651Z,95107.44
2023-03-25T22:36:22.265Z,95091.34
2023-03-25T22:39:09.727Z,95091.13
2023-03-25T22:41:57.834Z,95088.44
2023-03-25T22:44:44.854Z,95080.06
2023-03-25T22:47:31.149Z,95081.09
2023-03-25T22:50:17.759Z,95097.63
2023-03-25T22:53:04.205Z,95097.94
2023-03-25T22:55:55.305Z,95104.75
2023-03-25T22:58:41.789Z,95107.97
2023-03-25T23:01:28.789Z,95112.34
2023-03-25T23:04:14.937Z,95106.59
2023-03-25T23:07:07.998Z,95109.94
2023-03-25T23:09:55.270Z,95109.94
2023-03-25T23:12:41.072Z,95098.50
2023-03-25T23:15:30.486Z,95119.16
2023-03-25T23:18:16.689Z,95111.34
2023-03-25T23:21:02.863Z,95131.63
2023-03-25T23:23:53.944Z,95124.03
2023-03-25T23:26:41.003Z,95132.56
2023-03-25T23:29:26.860Z,95134.03
2023-03-25T23:32:12.779Z,95133.47
2023-03-25T23:34:59.974Z,95131.91
2023-03-25T23:37:46.397Z,95144.78
2023-03-25T23:40:32.581Z,95146.00
2023-03-25T23:43:18.715Z,95155.13
2023-03-25T23:46:06.400Z,95152.25
2023-03-25T23:48:55.812Z,95151.28
2023-03-25T23:51:42.252Z,95179.00
2023-03-25T23:54:28.899Z,95182.31
2023-03-25T23:57:15.921Z,95174.91
